Time;durP1;ratioP1;P1;durP2;ratioP2;P2;SDS_P1;SDS_P2;PMS_P1;PMS_P2;Temp;Humidity;BMP_temperature;BMP_pressure;BME280_temperature;BME280_humidity;BME280_pressure;Samples;Min_cycle;Max_cycle;Signal;HPM_P1;HPM_P2
2022/02/25 06:20:23;;;;;;;21.52;2.83;;;;;;;5.24;100.00;101522.81;5121571;27;20403;-31
2022/02/25 06:22:51;;;;;;;18.15;2.80;;;;;;;5.16;100.00;101522.16;5096853;28;20084;-34
2022/02/25 06:25:19;;;;;;;19.83;2.55;;;;;;;5.18;100.00;101524.69;5096657;28;20039;-34
2022/02/25 06:27:46;;;;;;;18.33;2.80;;;;;;;5.18;100.00;101524.69;5097678;28;20054;-32
2022/02/25 06:30:16;;;;;;;16.23;2.75;;;;;;;5.21;100.00;101529.69;5098914;28;20044;-40
2022/02/25 06:32:44;;;;;;;20.00;2.40;;;;;;;5.24;100.00;101533.91;5097321;28;20580;-31
2022/02/25 06:35:13;;;;;;;15.27;2.00;;;;;;;5.28;100.00;101546.16;5098413;28;20552;-34
2022/02/25 06:37:42;;;;;;;17.92;2.85;;;;;;;5.31;100.00;101540.97;5092871;28;20044;-37
2022/02/25 06:40:11;;;;;;;19.63;2.75;;;;;;;5.33;100.00;101546.25;5093723;28;20044;-39
2022/02/25 06:42:39;;;;;;;12.73;2.47;;;;;;;5.37;100.00;101552.97;5098991;28;20039;-35
2022/02/25 06:45:15;;;;;;;15.02;2.70;;;;;;;5.40;100.00;101556.06;5096727;28;20044;-32
2022/02/25 06:47:43;;;;;;;17.30;2.80;;;;;;;5.43;100.00;101563.03;5098622;28;20074;-34
2022/02/25 06:50:12;;;;;;;14.10;2.25;;;;;;;5.47;100.00;101569.78;5094040;28;20058;-34
2022/02/25 06:52:39;;;;;;;15.00;2.38;;;;;;;5.48;100.00;101565.91;5101051;28;20051;-33
2022/02/25 06:55:13;;;;;;;13.90;2.70;;;;;;;5.50;100.00;101559.03;5098882;28;20040;-37
2022/02/25 06:58:03;;;;;;;15.80;2.63;;;;;;;5.49;100.00;101568.44;5091704;28;20548;-38
2022/02/25 07:00:31;;;;;;;16.25;2.40;;;;;;;5.50;100.00;101574.81;5097411;28;20040;-40
2022/02/25 07:02:59;;;;;;;26.23;2.72;;;;;;;5.51;100.00;101574.56;5091300;28;20094;-35
2022/02/25 07:05:27;;;;;;;17.50;2.85;;;;;;;5.52;100.00;101578.16;5098418;28;20498;-38
2022/02/25 07:07:55;;;;;;;16.95;2.58;;;;;;;5.52;100.00;101575.41;5091915;28;20072;-35
2022/02/25 07:10:31;;;;;;;15.93;2.63;;;;;;;5.52;100.00;101579.00;5098597;28;20044;-36
2022/02/25 07:13:00;;;;;;;18.63;2.65;;;;;;;5.57;100.00;101585.75;5091349;28;20044;-38
2022/02/25 07:15:28;;;;;;;16.58;2.90;;;;;;;5.59;100.00;101589.09;5099009;28;20135;-33
2022/02/25 07:17:56;;;;;;;17.08;2.50;;;;;;;5.60;100.00;101601.84;5090622;28;20052;-33
2022/02/25 07:20:24;;;;;;;16.90;2.25;;;;;;;5.62;100.00;101606.03;5110986;28;20066;-34
2022/02/25 07:22:52;;;;;;;16.40;2.13;;;;;;;5.63;100.00;101606.88;5097823;28;20064;-35
2022/02/25 07:25:20;;;;;;;22.02;2.65;;;;;;;5.68;100.00;101606.97;5104323;28;20138;-32
2022/02/25 07:27:49;;;;;;;18.60;2.47;;;;;;;5.79;100.00;101617.16;5098061;28;20056;-30
2022/02/25 07:30:21;;;;;;;17.40;2.70;;;;;;;5.93;100.00;101623.25;5103148;28;20048;-37
2022/02/25 07:32:49;;;;;;;17.80;3.13;;;;;;;6.04;100.00;101620.41;5099028;28;20077;-36
2022/02/25 07:35:16;;;;;;;23.00;2.85;;;;;;;6.16;100.00;101623.13;5101678;28;20063;-32
2022/02/25 07:37:44;;;;;;;14.30;2.47;;;;;;;6.21;100.00;101629.56;5105770;28;20047;-33
2022/02/25 07:40:13;;;;;;;19.52;3.00;;;;;;;6.21;100.00;101646.19;5103333;28;20050;-34
2022/02/25 07:42:42;;;;;;;15.45;2.95;;;;;;;6.23;100.00;101634.84;5098322;28;20043;-35
2022/02/25 07:45:12;;;;;;;23.92;2.95;;;;;;;6.26;100.00;101627.97;5101642;28;20040;-32
2022/02/25 07:47:41;;;;;;;18.13;2.78;;;;;;;6.26;100.00;101636.28;5098860;28;20044;-38
2022/02/25 07:50:11;;;;;;;19.27;3.00;;;;;;;6.25;100.00;101641.00;5101284;28;20036;-32
2022/02/25 07:52:39;;;;;;;19.95;2.63;;;;;;;6.25;100.00;101649.31;5099434;28;20055;-31
2022/02/25 07:55:08;;;;;;;13.88;2.40;;;;;;;6.23;100.00;101637.63;5099630;28;20035;-34
2022/02/25 07:57:36;;;;;;;18.65;3.08;;;;;;;6.26;100.00;101648.22;5101362;28;20071;-34
2022/02/25 08:00:24;;;;;;;21.27;2.70;;;;;;;6.39;100.00;101655.38;5104251;28;20503;-36
2022/02/25 08:02:52;;;;;;;17.60;3.33;;;;;;;6.53;100.00;101665.88;5103975;28;20122;-34
2022/02/25 08:05:23;;;;;;;18.02;3.20;;;;;;;6.63;100.00;101661.56;5105142;28;20048;-34
2022/02/25 08:07:51;;;;;;;23.02;3.70;;;;;;;6.67;100.00;101668.28;5101369;28;20110;-38
2022/02/25 08:10:19;;;;;;;18.52;3.10;;;;;;;6.71;100.00;101678.63;5106770;28;20039;-35
2022/02/25 08:12:47;;;;;;;19.67;3.35;;;;;;;6.77;100.00;101683.16;5100141;28;20053;-31
2022/02/25 08:15:15;;;;;;;16.33;2.70;;;;;;;6.79;100.00;101694.84;5106172;28;20485;-32
2022/02/25 08:17:44;;;;;;;15.02;2.92;;;;;;;6.81;100.00;101702.88;5099306;28;20052;-38
2022/02/25 08:20:13;;;;;;;19.30;3.50;;;;;;;6.81;100.00;101706.50;5106939;28;20504;-34
2022/02/25 08:22:41;;;;;;;18.88;3.10;;;;;;;6.81;100.00;101702.88;5098621;28;20117;-35
2022/02/25 08:25:11;;;;;;;26.30;3.85;;;;;;;6.84;100.00;101708.78;5106861;28;20039;-38
2022/02/25 08:27:39;;;;;;;24.35;3.38;;;;;;;6.85;100.00;101720.72;5099074;28;20389;-35
2022/02/25 08:30:14;;;;;;;20.90;3.28;;;;;;;6.84;100.00;101730.13;5106009;28;20046;-32
2022/02/25 08:32:45;;;;;;;24.73;3.35;;;;;;;6.84;100.00;101730.97;5097928;28;20490;-35
2022/02/25 08:35:13;;;;;;;21.17;3.20;;;;;;;6.88;100.00;101736.84;5106183;28;20050;-31
2022/02/25 08:37:41;;;;;;;17.55;2.70;;;;;;;6.88;100.00;101750.72;5100265;28;20047;-37
2022/02/25 08:40:10;;;;;;;17.55;3.08;;;;;;;6.86;100.00;101744.59;5105455;28;20043;-34
2022/02/25 08:42:38;;;;;;;27.17;3.92;;;;;;;6.87;100.00;101751.81;5101186;28;20054;-31
2022/02/25 08:45:08;;;;;;;17.83;3.00;;;;;;;6.97;100.00;101751.16;5103942;28;20054;-33
2022/02/25 08:47:38;;;;;;;20.25;3.05;;;;;;;7.02;100.00;101760.38;5100832;28;20486;-38
2022/02/25 08:50:12;;;;;;;21.10;3.13;;;;;;;7.01;100.00;101767.03;5103375;28;20109;-33
2022/02/25 08:52:40;;;;;;;17.75;3.13;;;;;;;7.06;100.00;101778.22;5102716;28;20044;-38
2022/02/25 08:55:08;;;;;;;18.75;2.58;;;;;;;7.10;100.00;101778.56;5105065;28;20048;-35
2022/02/25 08:57:37;;;;;;;15.25;2.53;;;;;;;7.11;100.00;101792.19;5101703;28;20051;-34
2022/02/25 09:00:07;;;;;;;14.98;2.55;;;;;;;7.12;100.00;101799.41;5103752;28;20051;-30
2022/02/25 09:02:35;;;;;;;19.98;2.88;;;;;;;7.24;100.00;101796.53;5102638;28;20074;-35
2022/02/25 09:05:03;;;;;;;15.23;2.90;;;;;;;7.58;100.00;101803.72;5103034;28;20036;-32
2022/02/25 09:07:33;;;;;;;14.57;2.70;;;;;;;7.97;100.00;101809.25;5103594;28;20421;-31
2022/02/25 09:10:02;;;;;;;15.73;3.10;;;;;;;8.22;100.00;101817.88;5101620;28;20065;-38
2022/02/25 09:12:32;;;;;;;21.17;3.08;;;;;;;8.21;100.00;101827.31;5104215;28;20079;-33
2022/02/25 09:14:59;;;;;;;17.92;3.05;;;;;;;8.34;100.00;101830.84;5100177;28;20040;-38
2022/02/25 09:17:27;;;;;;;19.20;2.78;;;;;;;8.60;100.00;101835.56;5104960;28;20169;-40
2022/02/25 09:19:55;;;;;;;22.50;3.13;;;;;;;8.70;99.94;101823.69;5097654;28;20500;-38
2022/02/25 09:22:23;;;;;;;13.77;2.58;;;;;;;8.76;99.71;101837.41;5105676;28;20044;-31
2022/02/25 09:24:52;;;;;;;21.02;3.70;;;;;;;9.01;100.00;101841.50;5096862;28;20131;-38
2022/02/25 09:27:20;;;;;;;17.38;2.90;;;;;;;9.14;97.91;101843.88;5105560;28;20096;-34
2022/02/25 09:29:48;;;;;;;12.77;2.40;;;;;;;9.11;97.15;101850.81;5097949;28;20044;-30
2022/02/25 09:32:16;;;;;;;20.73;3.17;;;;;;;8.97;96.37;101863.50;5104758;28;20429;-40
2022/02/25 09:34:43;;;;;;;17.05;2.42;;;;;;;8.74;95.22;101873.00;5097707;28;20059;-35
2022/02/25 09:37:11;;;;;;;18.15;2.90;;;;;;;8.57;95.83;101870.34;5105428;28;20133;-37
2022/02/25 09:39:39;;;;;;;20.08;3.22;;;;;;;8.45;97.08;101871.56;5098876;28;20066;-37
2022/02/25 09:42:09;;;;;;;17.75;3.13;;;;;;;8.41;98.34;101887.06;5103698;28;20044;-36
2022/02/25 09:44:37;;;;;;;23.65;3.70;;;;;;;8.45;98.42;101889.09;5101248;28;20054;-31
2022/02/25 09:47:05;;;;;;;15.90;2.67;;;;;;;8.68;99.64;101901.03;5102063;28;20052;-37
2022/02/25 09:49:33;;;;;;;22.90;3.53;;;;;;;9.10;99.30;101901.19;5101566;28;20063;-34
2022/02/25 09:52:01;;;;;;;22.48;3.70;;;;;;;9.30;97.55;101893.03;5103749;28;20067;-36
2022/02/25 09:54:29;;;;;;;20.65;3.67;;;;;;;9.29;95.91;101900.53;5100839;28;20130;-38
2022/02/25 09:57:01;;;;;;;14.70;3.00;;;;;;;9.36;95.41;101911.47;5103710;28;20048;-33
2022/02/25 09:59:30;;;;;;;21.00;2.78;;;;;;;9.31;94.94;101906.69;5099210;28;20417;-32
2022/02/25 10:02:02;;;;;;;12.10;2.88;;;;;;;9.47;95.73;101916.00;5102803;28;20054;-36
2022/02/25 10:04:31;;;;;;;16.40;2.90;;;;;;;9.76;96.12;101918.47;5097145;28;20130;-37
2022/02/25 10:06:59;;;;;;;17.77;3.20;;;;;;;10.20;95.65;101928.25;5097777;28;20382;-37
2022/02/25 10:09:32;;;;;;;24.02;4.38;;;;;;;10.59;94.21;101936.25;5096415;28;20052;-39
2022/02/25 10:12:03;;;;;;;16.17;2.83;;;;;;;10.91;91.88;101941.66;5099686;28;20125;-35
2022/02/25 10:14:35;;;;;;;18.88;3.17;;;;;;;11.07;89.71;101946.16;5094773;28;20070;-34
2022/02/25 10:17:12;;;;;;;20.25;3.47;;;;;;;11.23;88.86;101956.25;5100468;28;20054;-35
2022/02/25 10:19:41;;;;;;;22.88;3.70;;;;;;;11.33;88.16;101956.28;5095358;28;20534;-36
2022/02/25 10:22:18;;;;;;;18.77;3.42;;;;;;;11.40;87.33;101965.22;5100617;28;20450;-32
2022/02/25 10:24:47;;;;;;;20.88;3.25;;;;;;;11.31;86.70;101972.47;5094664;28;20056;-39
2022/02/25 10:27:24;;;;;;;17.38;3.10;;;;;;;11.32;86.39;101976.94;5101665;28;20463;-37
2022/02/25 10:29:55;;;;;;;18.02;3.53;;;;;;;11.35;85.32;101970.81;5094777;28;20048;-35
2022/02/25 10:32:36;;;;;;;17.63;3.17;;;;;;;11.39;84.84;101990.63;5098006;28;20461;-36
2022/02/25 10:35:21;;;;;;;17.67;2.95;;;;;;;11.46;85.08;102001.56;5103971;28;20135;-33
2022/02/25 10:37:57;;;;;;;13.13;2.90;;;;;;;11.45;84.55;102003.50;5099553;28;20047;-34
2022/02/25 10:40:27;;;;;;;20.08;3.72;;;;;;;11.48;85.09;102002.97;5103348;28;20055;-34
2022/02/25 10:42:55;;;;;;;19.08;3.65;;;;;;;11.67;85.52;102015.28;5098441;28;20489;-37
2022/02/25 10:45:34;;;;;;;18.65;3.08;;;;;;;11.74;82.84;102026.19;5104651;28;20039;-30
2022/02/25 10:48:05;;;;;;;14.70;3.47;;;;;;;11.75;82.15;102030.69;5098504;28;20051;-36
2022/02/25 10:50:45;;;;;;;20.35;4.35;;;;;;;11.91;82.30;102017.56;5104065;28;20090;-32
2022/02/25 10:53:13;;;;;;;19.23;3.55;;;;;;;11.92;81.19;102025.69;5098288;28;20143;-36
2022/02/25 10:55:41;;;;;;;25.80;4.18;;;;;;;11.81;80.96;102034.31;5105767;28;20057;-40
2022/02/25 10:58:09;;;;;;;21.50;3.60;;;;;;;11.61;80.24;102037.91;5100709;28;20044;-35
2022/02/25 11:00:40;;;;;;;15.52;3.22;;;;;;;11.67;81.61;102040.44;5108126;28;20404;-32
2022/02/25 11:03:13;;;;;;;26.23;4.10;;;;;;;11.84;81.73;102045.81;5099943;28;20112;-33
2022/02/25 11:05:42;;;;;;;19.25;3.45;;;;;;;11.94;81.15;102045.81;5100708;28;20059;-38
2022/02/25 11:08:10;;;;;;;18.42;3.78;;;;;;;12.04;80.44;102054.19;5105774;28;20401;-35
2022/02/25 11:10:38;;;;;;;22.45;4.25;;;;;;;12.17;80.67;102051.97;5097289;28;20151;-36
2022/02/25 11:13:12;;;;;;;23.13;5.10;;;;;;;12.35;80.09;102071.81;5105749;28;20131;-37
2022/02/25 11:15:43;;;;;;;20.30;3.63;;;;;;;12.50;79.04;102065.34;5097963;28;20099;-31
2022/02/25 11:18:11;;;;;;;19.77;3.40;;;;;;;12.63;78.27;102053.56;5104766;28;20040;-34
2022/02/25 11:20:41;;;;;;;22.08;3.78;;;;;;;12.69;77.72;102066.44;5097778;28;20122;-37
2022/02/25 11:23:13;;;;;;;24.52;3.58;;;;;;;12.64;77.55;102086.03;5104266;28;20058;-34
2022/02/25 11:25:42;;;;;;;20.77;4.00;;;;;;;12.47;77.81;102096.72;5097513;28;20134;-34
2022/02/25 11:28:14;;;;;;;19.65;3.85;;;;;;;12.32;78.50;102085.53;5103249;28;20078;-41
2022/02/25 11:30:47;;;;;;;20.23;3.53;;;;;;;12.23;79.14;102099.25;5098974;28;20043;-35
2022/02/25 11:33:17;;;;;;;19.60;4.00;;;;;;;12.25;79.61;102107.38;5101892;28;20414;-40
2022/02/25 11:35:50;;;;;;;15.18;3.28;;;;;;;12.11;79.01;102129.47;5099919;28;20416;-40
2022/02/25 11:38:29;;;;;;;11.23;1.80;;;;;;;11.61;77.36;102146.94;5101143;28;20051;-36
2022/02/25 11:40:59;;;;;;;11.68;1.70;;;;;;;11.01;78.93;102143.63;5105235;28;20506;-40
2022/02/25 11:43:32;;;;;;;12.38;1.85;;;;;;;10.47;80.46;102164.47;5101857;28;20047;-35
2022/02/25 11:46:02;;;;;;;14.80;2.42;;;;;;;9.92;81.70;102174.81;5104266;28;20039;-37
2022/02/25 11:48:40;;;;;;;14.50;2.20;;;;;;;9.24;83.09;102145.56;5103996;28;20131;-32
2022/02/25 11:51:09;;;;;;;18.48;3.10;;;;;;;8.76;86.12;102160.25;5099906;28;20486;-36
2022/02/25 11:53:36;;;;;;;25.88;3.22;;;;;;;8.45;89.24;102158.91;5100678;28;20521;-34
2022/02/25 11:56:15;;;;;;;13.00;2.17;;;;;;;8.21;91.55;102152.63;5098070;28;20059;-32
2022/02/25 11:58:53;;;;;;;14.00;2.30;;;;;;;7.99;93.05;102161.97;5101393;28;20413;-39
2022/02/25 12:01:24;;;;;;;13.65;2.60;;;;;;;7.78;94.76;102152.41;5106053;28;20051;-31
2022/02/25 12:04:09;;;;;;;14.98;2.50;;;;;;;7.69;96.55;102159.44;5103830;28;20072;-33
2022/02/25 12:07:00;;;;;;;10.95;1.95;;;;;;;7.74;98.47;102167.88;5097983;28;20144;-33
2022/02/25 12:09:44;;;;;;;12.05;2.25;;;;;;;7.95;100.00;102167.19;5101199;28;20131;-30
2022/02/25 12:12:33;;;;;;;15.77;2.38;;;;;;;8.26;100.00;102166.63;5098159;27;20047;-36
2022/02/25 12:15:05;;;;;;;17.45;2.80;;;;;;;8.56;100.00;102174.69;5103386;28;20173;-29
2022/02/25 12:17:41;;;;;;;17.52;3.20;;;;;;;8.78;100.00;102179.47;5096784;28;20134;-38
2022/02/25 12:20:11;;;;;;;23.60;4.07;;;;;;;8.81;100.00;102187.28;5102630;28;20068;-39
2022/02/25 12:22:50;;;;;;;17.85;2.78;;;;;;;8.79;100.00;102195.88;5096628;28;20035;-33
2022/02/25 12:25:48;;;;;;;24.45;3.65;;;;;;;8.73;100.00;102198.88;5104021;28;20051;-39
2022/02/25 12:28:45;;;;;;;22.58;3.30;;;;;;;8.71;100.00;102196.34;5095898;28;20421;-32
2022/02/25 12:31:15;;;;;;;17.42;3.05;;;;;;;8.71;100.00;102195.50;5104759;28;20350;-37
2022/02/25 12:34:04;;;;;;;19.20;2.83;;;;;;;8.75;100.00;102214.22;5096947;28;20040;-37
2022/02/25 12:36:45;;;;;;;19.55;3.20;;;;;;;8.78;100.00;102210.09;5099476;28;20122;-42
2022/02/25 12:39:17;;;;;;;14.40;2.60;;;;;;;8.78;100.00;102213.72;5106748;28;20075;-37
2022/02/25 12:41:54;;;;;;;23.30;3.20;;;;;;;8.86;100.00;102227.19;5099968;28;20120;-35
2022/02/25 12:44:27;;;;;;;20.35;3.33;;;;;;;8.89;99.88;102231.41;5106408;28;20040;-36
2022/02/25 12:46:57;;;;;;;14.50;2.80;;;;;;;8.94;100.00;102225.91;5099329;28;20052;-35
2022/02/25 12:49:31;;;;;;;19.38;2.90;;;;;;;8.97;99.36;102236.53;5105793;28;20445;-34
2022/02/25 12:52:01;;;;;;;20.70;3.23;;;;;;;8.98;99.34;102254.94;5098613;28;20059;-33
2022/02/25 12:54:31;;;;;;;13.55;2.40;;;;;;;8.99;99.36;102245.50;5106230;28;20409;-34
2022/02/25 12:57:03;;;;;;;19.02;2.90;;;;;;;9.02;98.60;102253.31;5097555;28;20045;-33
2022/02/25 12:59:36;;;;;;;16.90;3.05;;;;;;;9.02;98.34;102271.94;5106080;28;20040;-34
2022/02/25 13:02:06;;;;;;;20.75;3.70;;;;;;;9.03;98.53;102271.69;5098355;28;20043;-37
2022/02/25 13:04:41;;;;;;;16.77;2.97;;;;;;;9.02;97.65;102272.78;5106526;28;20113;-34
2022/02/25 13:07:10;;;;;;;21.90;3.03;;;;;;;9.07;98.31;102280.41;5098187;28;20039;-36
2022/02/25 13:09:39;;;;;;;15.77;2.50;;;;;;;9.09;98.07;102283.78;5105163;28;20047;-30
2022/02/25 13:12:08;;;;;;;16.55;2.67;;;;;;;9.10;97.72;102288.25;5098145;28;20036;-32
2022/02/25 13:14:38;;;;;;;15.63;2.90;;;;;;;9.12;97.76;102286.91;5105910;28;20112;-35
2022/02/25 13:17:09;;;;;;;16.70;3.10;;;;;;;9.11;96.93;102287.16;5097587;28;20504;-38
2022/02/25 13:19:41;;;;;;;18.83;3.77;;;;;;;9.03;96.43;102295.91;5095962;28;20055;-35
2022/02/25 13:22:15;;;;;;;16.70;2.95;;;;;;;8.97;97.05;102308.94;5102115;28;20044;-34
2022/02/25 13:24:56;;;;;;;20.45;2.72;;;;;;;8.82;98.39;102315.06;5095295;28;20152;-33
2022/02/25 13:27:49;;;;;;;13.48;2.20;;;;;;;8.67;98.58;102316.75;5103024;28;20047;-32
2022/02/25 13:30:23;;;;;;;15.15;2.25;;;;;;;8.53;99.11;102321.78;5076063;28;20043;-33
2022/02/25 13:32:53;;;;;;;14.10;2.28;;;;;;;8.50;100.00;102331.47;5103518;28;20082;-33
2022/02/25 13:35:26;;;;;;;16.85;2.95;;;;;;;8.51;100.00;102330.38;5095775;28;20047;-34
2022/02/25 13:37:56;;;;;;;;;;;;;;;8.46;99.44;102338.63;5103077;28;20398;-32
2022/02/25 13:40:31;;;;;;;17.17;2.47;;;;;;;8.48;100.00;102332.81;5095501;28;19924;-33
2022/02/25 13:42:58;;;;;;;15.75;2.47;;;;;;;8.50;99.90;102348.16;5103177;28;20417;-34
2022/02/25 13:45:31;;;;;;;16.17;2.40;;;;;;;8.53;99.66;102341.25;5094520;28;20469;-30
2022/02/25 13:54:00;;;;;;;19.48;3.17;;;;;;;8.65;99.73;102355.94;5103092;28;20558;-32
2022/02/25 13:56:31;;;;;;;15.15;3.30;;;;;;;8.69;99.80;102356.28;5095377;28;20040;-31
2022/02/25 13:59:01;;;;;;;15.75;2.90;;;;;;;8.70;99.61;102363.56;5102300;28;20051;-32
2022/02/25 14:01:30;;;;;;;19.60;3.50;;;;;;;8.74;99.71;102373.09;5095346;28;20048;-37
2022/02/25 14:03:58;;;;;;;19.50;3.25;;;;;;;8.75;99.60;102369.22;5102609;28;20058;-37
2022/02/25 14:06:33;;;;;;;25.10;3.92;;;;;;;8.74;99.55;102375.88;5094590;28;20040;-32
2022/02/25 14:09:01;;;;;;;19.48;3.08;;;;;;;8.69;98.99;102381.34;5102992;28;20043;-31
2022/02/25 14:11:34;;;;;;;18.08;2.45;;;;;;;8.68;99.27;102388.00;5095231;28;20047;-37
2022/02/25 14:14:02;;;;;;;19.60;3.20;;;;;;;8.70;99.72;102396.94;5100619;28;20130;-34
2022/02/25 14:16:30;;;;;;;15.65;2.60;;;;;;;8.69;99.13;102410.00;5094801;28;20054;-33
2022/02/25 14:19:13;;;;;;;17.30;2.45;;;;;;;8.63;98.44;102400.72;5100813;28;20143;-35
2022/02/25 14:21:42;;;;;;;14.82;2.88;;;;;;;8.63;99.02;102411.84;5093988;28;20078;-38
2022/02/25 14:24:43;;;;;;;23.00;3.00;;;;;;;8.70;99.01;102422.00;5100985;28;20036;-32
2022/02/25 14:27:14;;;;;;;16.13;2.50;;;;;;;8.62;98.43;102424.06;5053514;28;20070;-37
2022/02/25 14:29:43;;;;;;;15.65;2.63;;;;;;;8.54;97.96;102424.47;5107890;28;20040;-33
2022/02/25 14:32:14;;;;;;;14.02;2.40;;;;;;;8.52;98.14;102428.59;5098847;28;20032;-31
2022/02/25 14:34:44;;;;;;;13.80;2.20;;;;;;;8.52;98.36;102434.16;5105709;28;20043;-31
2022/02/25 14:37:28;;;;;;;23.80;2.95;;;;;;;8.60;99.25;102433.75;5098648;28;20036;-33
2022/02/25 14:40:00;;;;;;;17.90;2.85;;;;;;;8.63;99.11;102434.09;5106558;28;20392;-31
2022/02/25 14:42:29;;;;;;;17.55;3.15;;;;;;;8.62;98.27;102442.69;5098162;28;20073;-32
2022/02/25 14:44:59;;;;;;;12.43;1.80;;;;;;;8.51;96.10;102447.22;5105900;28;20059;-38
2022/02/25 14:47:27;;;;;;;12.63;2.10;;;;;;;8.39;95.93;102454.78;5098676;28;20058;-33
2022/02/25 14:49:55;;;;;;;15.30;2.17;;;;;;;8.34;96.94;102460.22;5103012;28;20132;-34
2022/02/25 14:52:24;;;;;;;18.42;2.30;;;;;;;8.31;97.71;102457.88;5100565;28;20505;-37
2022/02/25 14:54:52;;;;;;;14.32;2.35;;;;;;;8.30;97.48;102459.81;5101832;28;20062;-34
2022/02/25 14:57:20;;;;;;;14.88;2.30;;;;;;;8.28;97.70;102463.94;5100569;28;20465;-34
2022/02/25 14:59:47;;;;;;;13.48;2.25;;;;;;;8.27;97.55;102473.38;5102414;28;20040;-33
2022/02/25 15:02:15;;;;;;;14.98;2.22;;;;;;;8.25;97.94;102476.41;5098171;28;20051;-37
2022/02/25 15:04:43;;;;;;;14.40;2.40;;;;;;;8.25;97.96;102481.09;5101023;28;20057;-29
2022/02/25 15:07:11;;;;;;;15.20;1.95;;;;;;;8.25;98.25;102483.88;5100423;28;20553;-31
2022/02/25 15:09:40;;;;;;;14.25;2.38;;;;;;;8.22;98.05;102482.44;5105051;28;20384;-37
2022/02/25 15:12:08;;;;;;;15.23;2.42;;;;;;;8.24;98.54;102496.09;5104617;28;20048;-28
2022/02/25 15:14:36;;;;;;;19.15;3.17;;;;;;;8.23;98.91;102497.19;5106829;28;20043;-39
2022/02/25 15:17:04;;;;;;;17.33;2.70;;;;;;;8.19;98.96;102499.59;5101474;28;20489;-36
2022/02/25 15:19:33;;;;;;;19.65;2.53;;;;;;;8.17;99.55;102506.53;5107425;28;20171;-31
2022/02/25 15:22:02;;;;;;;11.18;1.70;;;;;;;8.13;99.86;102505.31;5099208;28;20048;-35
2022/02/25 15:24:32;;;;;;;15.80;2.95;;;;;;;8.11;100.00;102510.25;5107145;28;20043;-29
2022/02/25 15:27:05;;;;;;;20.00;2.55;;;;;;;8.08;100.00;102508.81;5100240;28;20124;-33
2022/02/25 15:29:33;;;;;;;17.17;2.50;;;;;;;8.05;100.00;102514.84;5107744;28;20102;-32
2022/02/25 15:32:00;;;;;;;15.90;2.38;;;;;;;8.08;100.00;102513.53;5098406;28;20048;-34
2022/02/25 15:34:30;;;;;;;14.68;2.40;;;;;;;8.04;100.00;102512.31;5106988;28;20441;-30
2022/02/25 15:36:59;;;;;;;16.33;2.83;;;;;;;8.01;100.00;102521.13;5097363;28;20051;-40
2022/02/25 15:39:27;;;;;;;15.05;2.40;;;;;;;7.98;100.00;102519.72;5106621;28;20043;-34
2022/02/25 15:41:55;;;;;;;15.32;2.40;;;;;;;7.96;100.00;102516.31;5098292;28;20405;-36
2022/02/25 15:44:26;;;;;;;23.98;3.30;;;;;;;7.94;100.00;102527.69;5095184;28;20485;-34
2022/02/25 15:46:55;;;;;;;19.02;3.08;;;;;;;7.89;100.00;102521.97;5102380;28;20071;-35
2022/02/25 15:49:23;;;;;;;22.10;3.05;;;;;;;7.85;100.00;102526.31;5097634;28;20378;-35
2022/02/25 15:51:51;;;;;;;17.83;3.03;;;;;;;7.83;100.00;102536.84;5099344;28;20051;-32
2022/02/25 15:54:19;;;;;;;15.65;3.13;;;;;;;7.78;100.00;102531.16;5098971;28;20035;-30
2022/02/25 15:56:48;;;;;;;22.60;3.60;;;;;;;7.77;100.00;102526.69;5099961;28;20122;-35
2022/02/25 15:59:16;;;;;;;24.25;4.05;;;;;;;7.75;100.00;102539.13;5102214;28;20059;-32
2022/02/25 16:01:45;;;;;;;18.30;3.17;;;;;;;7.76;100.00;102550.00;5103014;28;20047;-35
2022/02/25 16:04:14;;;;;;;17.10;2.92;;;;;;;7.74;100.00;102552.19;5103306;28;20421;-33
2022/02/25 16:06:41;;;;;;;12.55;2.85;;;;;;;7.72;100.00;102561.84;5101625;28;20051;-34
2022/02/25 16:09:09;;;;;;;19.08;2.90;;;;;;;7.66;100.00;102555.28;5103625;28;20048;-31
2022/02/25 16:11:37;;;;;;;15.20;2.60;;;;;;;7.59;100.00;102557.34;5103721;28;20047;-34
2022/02/25 16:14:05;;;;;;;15.55;2.00;;;;;;;7.53;100.00;102566.63;5100595;28;20047;-32
2022/02/25 16:16:33;;;;;;;15.50;2.40;;;;;;;7.49;100.00;102576.50;5104913;28;20060;-33
2022/02/25 16:19:03;;;;;;;15.90;2.97;;;;;;;7.44;100.00;102573.59;5099346;28;20051;-33
2022/02/25 16:21:31;;;;;;;20.35;2.97;;;;;;;7.38;100.00;102572.63;5105463;28;20421;-30
2022/02/25 16:24:18;;;;;;;10.13;1.98;;;;;;;7.32;100.00;102589.38;5097893;28;20040;-36
2022/02/25 16:26:46;;;;;;;18.42;3.45;;;;;;;7.29;100.00;102593.47;5103770;28;20073;-35
2022/02/25 16:29:14;;;;;;;18.98;3.10;;;;;;;7.24;100.00;102602.50;5097820;28;20043;-32
2022/02/25 16:31:43;;;;;;;13.35;2.47;;;;;;;7.21;100.00;102613.22;5105343;28;20050;-33
2022/02/25 16:34:13;;;;;;;18.85;2.88;;;;;;;7.19;100.00;102620.97;5110363;28;20410;-28
2022/02/25 16:36:40;;;;;;;16.95;2.55;;;;;;;7.14;100.00;102631.91;5105573;28;20040;-37
2022/02/25 16:39:08;;;;;;;13.13;2.00;;;;;;;7.09;100.00;102640.94;5097735;28;20044;-35
2022/02/25 16:41:37;;;;;;;17.92;2.83;;;;;;;7.04;100.00;102642.69;5104274;28;20047;-38
2022/02/25 16:44:05;;;;;;;18.08;2.45;;;;;;;7.00;100.00;102652.56;5097690;28;20411;-33
2022/02/25 16:46:35;;;;;;;14.55;1.92;;;;;;;6.94;100.00;102654.34;5104922;28;20035;-32
2022/02/25 16:49:04;;;;;;;20.23;2.53;;;;;;;6.89;100.00;102657.81;5098067;28;20048;-38
2022/02/25 16:51:37;;;;;;;17.00;2.25;;;;;;;6.86;100.00;102674.06;5105097;28;20059;-32
2022/02/25 16:54:05;;;;;;;11.38;2.20;;;;;;;6.80;100.00;102667.50;5098846;28;20032;-38
2022/02/25 16:56:34;;;;;;;16.20;2.55;;;;;;;6.77;100.00;102683.78;5102991;28;20481;-28
2022/02/25 16:59:02;;;;;;;21.55;2.35;;;;;;;6.73;100.00;102693.63;5099025;28;20051;-34
2022/02/25 17:01:30;;;;;;;15.15;3.00;;;;;;;6.69;100.00;102703.50;5102133;28;20043;-32
2022/02/25 17:03:58;;;;;;;20.25;3.33;;;;;;;6.64;100.00;102704.16;5100767;28;20114;-38
2022/02/25 17:06:27;;;;;;;15.90;2.40;;;;;;;6.59;100.00;102712.34;5103445;28;20522;-36
2022/02/25 17:08:56;;;;;;;19.55;2.40;;;;;;;6.54;100.00;102726.03;5100480;28;20074;-38
2022/02/25 17:11:24;;;;;;;18.33;2.85;;;;;;;6.49;100.00;102723.94;5102042;28;20043;-32
2022/02/25 17:13:52;;;;;;;14.45;2.25;;;;;;;6.45;100.00;102736.56;5097535;28;20063;-32
2022/02/25 17:16:19;;;;;;;17.45;2.47;;;;;;;6.43;100.00;102747.00;5096735;28;20052;-35
2022/02/25 17:18:47;;;;;;;16.70;2.63;;;;;;;6.40;100.00;102754.94;5096480;28;20052;-33
2022/02/25 17:21:15;;;;;;;15.50;2.53;;;;;;;6.36;100.00;102757.34;5099185;28;20544;-33
2022/02/25 17:23:43;;;;;;;16.92;2.53;;;;;;;6.32;100.00;102769.94;5093069;28;20052;-36
2022/02/25 17:26:13;;;;;;;12.70;2.05;;;;;;;6.30;100.00;102774.84;5101094;28;20040;-33
2022/02/25 17:28:40;;;;;;;18.48;2.13;;;;;;;6.26;100.00;102781.91;5093935;28;20066;-36
2022/02/25 17:31:09;;;;;;;20.75;2.90;;;;;;;6.23;100.00;102788.75;5100100;28;20036;-30
2022/02/25 17:33:37;;;;;;;18.38;2.55;;;;;;;6.21;100.00;102798.34;5094362;28;20058;-38
2022/02/25 17:36:05;;;;;;;18.58;2.60;;;;;;;6.19;100.00;102803.31;5101740;28;20498;-33
2022/02/25 17:38:33;;;;;;;16.40;2.58;;;;;;;6.16;100.00;102806.50;5093143;28;20044;-30
2022/02/25 17:41:01;;;;;;;25.27;2.63;;;;;;;6.15;100.00;102811.22;5101766;28;20052;-35
2022/02/25 17:43:30;;;;;;;13.52;2.30;;;;;;;6.13;100.00;102820.81;5093639;28;20036;-38
2022/02/25 17:46:00;;;;;;;18.42;2.75;;;;;;;6.09;100.00;102830.63;5100953;28;20079;-33
2022/02/25 17:48:28;;;;;;;16.25;2.70;;;;;;;6.06;100.00;102836.63;5094687;28;20077;-35
2022/02/25 17:50:56;;;;;;;19.63;2.67;;;;;;;6.04;100.00;102834.06;5098254;28;20076;-29
2022/02/25 17:53:23;;;;;;;21.13;3.22;;;;;;;6.02;100.00;102838.13;5095019;28;20054;-30
2022/02/25 17:55:52;;;;;;;21.23;2.58;;;;;;;6.01;100.00;102837.28;5097996;28;20075;-35
2022/02/25 17:58:20;;;;;;;22.23;2.88;;;;;;;6.00;100.00;102851.34;5093463;28;20070;-34
2022/02/25 18:00:49;;;;;;;22.02;3.17;;;;;;;5.99;100.00;102858.84;5098078;28;20043;-32